sensor_id;sensor_type;location;lat;lon;timestamp;P1;durP1;ratioP1;P2;durP2;ratioP2
13185;SDS011;6658;53.080;7.428;2022-08-03T00:00:01;6.43;;;3.63;;
13185;SDS011;6658;53.080;7.428;2022-08-03T00:02:29;6.33;;;3.50;;
13185;SDS011;6658;53.080;7.428;2022-08-03T00:04:54;6.83;;;3.97;;
13185;SDS011;6658;53.080;7.428;2022-08-03T00:07:20;4.23;;;3.80;;
13185;SDS011;6658;53.080;7.428;2022-08-03T00:09:45;5.27;;;3.97;;
13185;SDS011;6658;53.080;7.428;2022-08-03T00:12:11;4.87;;;3.70;;
13185;SDS011;6658;53.080;7.428;2022-08-03T00:14:37;4.70;;;4.30;;
13185;SDS011;6658;53.080;7.428;2022-08-03T00:17:03;4.07;;;3.67;;
13185;SDS011;6658;53.080;7.428;2022-08-03T00:19:28;4.97;;;3.70;;
13185;SDS011;6658;53.080;7.428;2022-08-03T00:21:54;5.13;;;4.10;;
13185;SDS011;6658;53.080;7.428;2022-08-03T00:24:20;4.23;;;3.40;;
13185;SDS011;6658;53.080;7.428;2022-08-03T00:26:45;4.47;;;3.20;;
13185;SDS011;6658;53.080;7.428;2022-08-03T00:29:11;4.83;;;3.83;;
13185;SDS011;6658;53.080;7.428;2022-08-03T00:31:37;3.80;;;3.50;;
13185;SDS011;6658;53.080;7.428;2022-08-03T00:34:02;5.30;;;3.60;;
13185;SDS011;6658;53.080;7.428;2022-08-03T00:36:28;5.07;;;4.37;;
13185;SDS011;6658;53.080;7.428;2022-08-03T00:38:54;5.13;;;4.13;;
13185;SDS011;6658;53.080;7.428;2022-08-03T00:41:20;7.37;;;4.03;;
13185;SDS011;6658;53.080;7.428;2022-08-03T00:43:46;6.23;;;4.20;;
13185;SDS011;6658;53.080;7.428;2022-08-03T00:46:12;5.10;;;4.10;;
13185;SDS011;6658;53.080;7.428;2022-08-03T00:48:37;3.83;;;3.47;;
13185;SDS011;6658;53.080;7.428;2022-08-03T00:51:04;4.07;;;3.47;;
13185;SDS011;6658;53.080;7.428;2022-08-03T00:53:31;5.03;;;3.63;;
13185;SDS011;6658;53.080;7.428;2022-08-03T00:55:58;4.20;;;3.80;;
13185;SDS011;6658;53.080;7.428;2022-08-03T00:58:24;4.00;;;3.60;;
13185;SDS011;6658;53.080;7.428;2022-08-03T01:00:50;3.77;;;3.43;;
13185;SDS011;6658;53.080;7.428;2022-08-03T01:03:16;5.00;;;3.83;;
13185;SDS011;6658;53.080;7.428;2022-08-03T01:08:33;5.47;;;3.73;;
13185;SDS011;6658;53.080;7.428;2022-08-03T01:11:05;5.93;;;3.40;;
13185;SDS011;6658;53.080;7.428;2022-08-03T01:16:43;3.87;;;3.10;;
13185;SDS011;6658;53.080;7.428;2022-08-03T01:30:20;4.43;;;3.97;;
13185;SDS011;6658;53.080;7.428;2022-08-03T01:32:54;4.43;;;3.30;;
13185;SDS011;6658;53.080;7.428;2022-08-03T01:35:40;4.80;;;3.90;;
13185;SDS011;6658;53.080;7.428;2022-08-03T01:38:12;4.27;;;3.80;;
13185;SDS011;6658;53.080;7.428;2022-08-03T01:40:41;4.00;;;3.70;;
13185;SDS011;6658;53.080;7.428;2022-08-03T01:43:12;4.20;;;3.77;;
13185;SDS011;6658;53.080;7.428;2022-08-03T01:45:41;4.23;;;3.70;;
13185;SDS011;6658;53.080;7.428;2022-08-03T01:48:08;6.30;;;4.07;;
13185;SDS011;6658;53.080;7.428;2022-08-03T01:50:36;7.13;;;3.87;;
13185;SDS011;6658;53.080;7.428;2022-08-03T01:53:04;4.00;;;3.70;;
13185;SDS011;6658;53.080;7.428;2022-08-03T01:55:31;4.73;;;3.60;;
13185;SDS011;6658;53.080;7.428;2022-08-03T01:58:01;5.40;;;3.97;;
13185;SDS011;6658;53.080;7.428;2022-08-03T02:00:28;3.90;;;3.50;;
13185;SDS011;6658;53.080;7.428;2022-08-03T02:02:55;4.27;;;3.87;;
13185;SDS011;6658;53.080;7.428;2022-08-03T02:05:22;6.67;;;3.77;;
13185;SDS011;6658;53.080;7.428;2022-08-03T02:07:50;4.20;;;3.77;;
13185;SDS011;6658;53.080;7.428;2022-08-03T02:10:18;4.37;;;3.93;;
13185;SDS011;6658;53.080;7.428;2022-08-03T02:12:45;4.53;;;3.70;;
13185;SDS011;6658;53.080;7.428;2022-08-03T02:15:14;4.33;;;3.93;;
13185;SDS011;6658;53.080;7.428;2022-08-03T02:17:42;6.13;;;4.00;;
13185;SDS011;6658;53.080;7.428;2022-08-03T02:20:09;7.93;;;4.63;;
13185;SDS011;6658;53.080;7.428;2022-08-03T02:22:40;5.43;;;3.70;;
13185;SDS011;6658;53.080;7.428;2022-08-03T02:25:07;4.10;;;3.70;;
13185;SDS011;6658;53.080;7.428;2022-08-03T02:27:34;4.73;;;3.50;;
13185;SDS011;6658;53.080;7.428;2022-08-03T02:30:04;4.27;;;3.67;;
13185;SDS011;6658;53.080;7.428;2022-08-03T02:32:34;4.97;;;3.63;;
13185;SDS011;6658;53.080;7.428;2022-08-03T02:35:03;5.73;;;3.37;;
13185;SDS011;6658;53.080;7.428;2022-08-03T02:37:43;4.20;;;3.80;;
13185;SDS011;6658;53.080;7.428;2022-08-03T02:40:12;5.53;;;4.07;;
13185;SDS011;6658;53.080;7.428;2022-08-03T02:42:40;4.43;;;3.40;;
13185;SDS011;6658;53.080;7.428;2022-08-03T02:45:08;5.77;;;4.13;;
13185;SDS011;6658;53.080;7.428;2022-08-03T02:47:39;4.07;;;3.63;;
13185;SDS011;6658;53.080;7.428;2022-08-03T02:50:07;4.40;;;4.00;;
13185;SDS011;6658;53.080;7.428;2022-08-03T02:52:37;6.40;;;4.17;;
13185;SDS011;6658;53.080;7.428;2022-08-03T02:55:06;4.30;;;3.90;;
13185;SDS011;6658;53.080;7.428;2022-08-03T02:57:33;4.47;;;3.83;;
13185;SDS011;6658;53.080;7.428;2022-08-03T03:00:01;4.80;;;4.10;;
13185;SDS011;6658;53.080;7.428;2022-08-03T03:02:28;4.33;;;3.93;;
13185;SDS011;6658;53.080;7.428;2022-08-03T03:04:54;5.27;;;3.97;;
13185;SDS011;6658;53.080;7.428;2022-08-03T03:07:21;4.03;;;3.60;;
13185;SDS011;6658;53.080;7.428;2022-08-03T03:09:47;4.77;;;3.63;;
13185;SDS011;6658;53.080;7.428;2022-08-03T03:12:13;6.27;;;4.00;;
13185;SDS011;6658;53.080;7.428;2022-08-03T03:14:41;10.40;;;4.20;;
13185;SDS011;6658;53.080;7.428;2022-08-03T03:17:08;3.70;;;3.40;;
13185;SDS011;6658;53.080;7.428;2022-08-03T03:19:35;5.13;;;3.40;;
13185;SDS011;6658;53.080;7.428;2022-08-03T03:22:03;3.90;;;3.50;;
13185;SDS011;6658;53.080;7.428;2022-08-03T03:24:31;4.27;;;3.37;;
13185;SDS011;6658;53.080;7.428;2022-08-03T03:26:58;4.33;;;3.60;;
13185;SDS011;6658;53.080;7.428;2022-08-03T03:29:24;7.93;;;3.90;;
13185;SDS011;6658;53.080;7.428;2022-08-03T03:31:51;5.97;;;3.30;;
13185;SDS011;6658;53.080;7.428;2022-08-03T03:34:17;6.00;;;3.50;;
13185;SDS011;6658;53.080;7.428;2022-08-03T03:36:43;4.93;;;3.80;;
13185;SDS011;6658;53.080;7.428;2022-08-03T03:39:09;6.27;;;3.60;;
13185;SDS011;6658;53.080;7.428;2022-08-03T03:41:35;4.60;;;4.20;;
13185;SDS011;6658;53.080;7.428;2022-08-03T03:44:01;6.50;;;3.90;;
13185;SDS011;6658;53.080;7.428;2022-08-03T03:46:27;5.40;;;4.27;;
13185;SDS011;6658;53.080;7.428;2022-08-03T03:48:53;5.53;;;4.80;;
13185;SDS011;6658;53.080;7.428;2022-08-03T03:51:19;5.40;;;4.90;;
13185;SDS011;6658;53.080;7.428;2022-08-03T03:53:54;5.90;;;4.20;;
13185;SDS011;6658;53.080;7.428;2022-08-03T03:56:21;5.90;;;4.80;;
13185;SDS011;6658;53.080;7.428;2022-08-03T03:58:46;4.93;;;4.10;;
13185;SDS011;6658;53.080;7.428;2022-08-03T04:01:12;5.80;;;4.13;;
13185;SDS011;6658;53.080;7.428;2022-08-03T04:03:38;4.80;;;4.13;;
13185;SDS011;6658;53.080;7.428;2022-08-03T04:06:03;4.73;;;3.80;;
13185;SDS011;6658;53.080;7.428;2022-08-03T04:08:59;4.37;;;4.07;;
13185;SDS011;6658;53.080;7.428;2022-08-03T04:16:55;6.00;;;3.90;;
13185;SDS011;6658;53.080;7.428;2022-08-03T04:19:25;5.33;;;3.70;;
13185;SDS011;6658;53.080;7.428;2022-08-03T04:21:58;6.00;;;3.50;;
13185;SDS011;6658;53.080;7.428;2022-08-03T04:24:28;4.77;;;3.70;;
13185;SDS011;6658;53.080;7.428;2022-08-03T04:26:58;4.53;;;3.50;;
13185;SDS011;6658;53.080;7.428;2022-08-03T04:29:26;5.03;;;3.57;;
13185;SDS011;6658;53.080;7.428;2022-08-03T04:31:53;5.20;;;3.77;;
13185;SDS011;6658;53.080;7.428;2022-08-03T04:34:22;6.80;;;3.83;;
13185;SDS011;6658;53.080;7.428;2022-08-03T04:36:48;5.53;;;3.87;;
13185;SDS011;6658;53.080;7.428;2022-08-03T04:39:23;5.87;;;3.47;;
13185;SDS011;6658;53.080;7.428;2022-08-03T04:41:52;5.47;;;3.50;;
13185;SDS011;6658;53.080;7.428;2022-08-03T04:44:20;4.57;;;3.60;;
13185;SDS011;6658;53.080;7.428;2022-08-03T04:46:49;4.43;;;3.33;;
13185;SDS011;6658;53.080;7.428;2022-08-03T04:49:16;3.27;;;2.97;;
13185;SDS011;6658;53.080;7.428;2022-08-03T04:51:44;4.70;;;3.37;;
13185;SDS011;6658;53.080;7.428;2022-08-03T04:54:13;3.33;;;2.57;;
13185;SDS011;6658;53.080;7.428;2022-08-03T04:56:40;4.60;;;2.97;;
13185;SDS011;6658;53.080;7.428;2022-08-03T04:59:07;6.53;;;2.83;;
13185;SDS011;6658;53.080;7.428;2022-08-03T05:01:36;6.33;;;2.60;;
13185;SDS011;6658;53.080;7.428;2022-08-03T05:04:03;5.40;;;2.50;;
13185;SDS011;6658;53.080;7.428;2022-08-03T05:06:29;3.53;;;2.30;;
13185;SDS011;6658;53.080;7.428;2022-08-03T05:08:55;4.57;;;2.33;;
13185;SDS011;6658;53.080;7.428;2022-08-03T05:11:20;4.90;;;2.40;;
13185;SDS011;6658;53.080;7.428;2022-08-03T05:13:46;3.53;;;2.87;;
13185;SDS011;6658;53.080;7.428;2022-08-03T05:16:12;3.33;;;2.13;;
13185;SDS011;6658;53.080;7.428;2022-08-03T05:18:42;3.97;;;2.30;;
13185;SDS011;6658;53.080;7.428;2022-08-03T05:21:08;5.77;;;2.30;;
13185;SDS011;6658;53.080;7.428;2022-08-03T05:23:34;10.13;;;2.47;;
13185;SDS011;6658;53.080;7.428;2022-08-03T05:26:00;5.03;;;2.13;;
13185;SDS011;6658;53.080;7.428;2022-08-03T05:28:26;4.10;;;2.20;;
13185;SDS011;6658;53.080;7.428;2022-08-03T05:30:51;4.53;;;1.93;;
13185;SDS011;6658;53.080;7.428;2022-08-03T05:33:17;3.93;;;2.40;;
13185;SDS011;6658;53.080;7.428;2022-08-03T05:35:43;3.87;;;1.90;;
13185;SDS011;6658;53.080;7.428;2022-08-03T05:38:09;4.73;;;2.13;;
13185;SDS011;6658;53.080;7.428;2022-08-03T05:40:35;4.47;;;1.90;;
13185;SDS011;6658;53.080;7.428;2022-08-03T05:43:02;5.50;;;1.97;;
13185;SDS011;6658;53.080;7.428;2022-08-03T05:45:28;4.43;;;1.77;;
13185;SDS011;6658;53.080;7.428;2022-08-03T05:47:53;3.50;;;1.87;;
13185;SDS011;6658;53.080;7.428;2022-08-03T05:50:19;5.20;;;2.20;;
13185;SDS011;6658;53.080;7.428;2022-08-03T05:52:45;5.27;;;2.03;;
13185;SDS011;6658;53.080;7.428;2022-08-03T05:55:11;5.27;;;2.03;;
13185;SDS011;6658;53.080;7.428;2022-08-03T05:57:38;4.10;;;2.17;;
13185;SDS011;6658;53.080;7.428;2022-08-03T06:00:09;5.83;;;2.10;;
13185;SDS011;6658;53.080;7.428;2022-08-03T06:02:36;4.10;;;1.90;;
13185;SDS011;6658;53.080;7.428;2022-08-03T06:05:02;4.23;;;2.13;;
13185;SDS011;6658;53.080;7.428;2022-08-03T06:07:28;5.53;;;2.53;;
13185;SDS011;6658;53.080;7.428;2022-08-03T06:09:54;4.27;;;1.40;;
13185;SDS011;6658;53.080;7.428;2022-08-03T06:12:20;5.93;;;2.20;;
13185;SDS011;6658;53.080;7.428;2022-08-03T06:14:45;3.87;;;2.07;;
13185;SDS011;6658;53.080;7.428;2022-08-03T06:17:11;4.73;;;2.20;;
13185;SDS011;6658;53.080;7.428;2022-08-03T06:19:37;5.63;;;1.93;;
13185;SDS011;6658;53.080;7.428;2022-08-03T06:22:02;3.13;;;1.83;;
13185;SDS011;6658;53.080;7.428;2022-08-03T06:24:28;6.90;;;1.80;;
13185;SDS011;6658;53.080;7.428;2022-08-03T06:26:54;4.03;;;2.00;;
13185;SDS011;6658;53.080;7.428;2022-08-03T06:29:20;4.33;;;1.70;;
13185;SDS011;6658;53.080;7.428;2022-08-03T06:31:46;6.20;;;2.27;;
13185;SDS011;6658;53.080;7.428;2022-08-03T06:34:12;5.90;;;2.03;;
13185;SDS011;6658;53.080;7.428;2022-08-03T06:36:37;2.33;;;1.40;;
13185;SDS011;6658;53.080;7.428;2022-08-03T06:39:03;5.57;;;1.90;;
13185;SDS011;6658;53.080;7.428;2022-08-03T06:41:29;4.20;;;2.03;;
13185;SDS011;6658;53.080;7.428;2022-08-03T06:43:54;4.03;;;1.67;;
13185;SDS011;6658;53.080;7.428;2022-08-03T06:46:20;4.47;;;2.00;;
13185;SDS011;6658;53.080;7.428;2022-08-03T06:48:46;5.43;;;2.10;;
13185;SDS011;6658;53.080;7.428;2022-08-03T06:51:12;4.30;;;1.70;;
13185;SDS011;6658;53.080;7.428;2022-08-03T06:53:38;4.80;;;2.23;;
13185;SDS011;6658;53.080;7.428;2022-08-03T06:56:04;5.50;;;1.90;;
13185;SDS011;6658;53.080;7.428;2022-08-03T06:58:32;5.50;;;1.93;;
13185;SDS011;6658;53.080;7.428;2022-08-03T07:00:58;8.27;;;2.30;;
13185;SDS011;6658;53.080;7.428;2022-08-03T07:03:23;6.43;;;2.13;;
13185;SDS011;6658;53.080;7.428;2022-08-03T07:05:49;9.87;;;2.37;;
13185;SDS011;6658;53.080;7.428;2022-08-03T07:08:15;5.50;;;2.43;;
13185;SDS011;6658;53.080;7.428;2022-08-03T07:10:41;4.03;;;2.23;;
13185;SDS011;6658;53.080;7.428;2022-08-03T07:13:07;4.33;;;2.20;;
13185;SDS011;6658;53.080;7.428;2022-08-03T07:15:34;5.07;;;1.77;;
13185;SDS011;6658;53.080;7.428;2022-08-03T07:17:59;6.70;;;2.30;;
13185;SDS011;6658;53.080;7.428;2022-08-03T07:20:25;3.73;;;2.00;;
13185;SDS011;6658;53.080;7.428;2022-08-03T07:22:51;3.50;;;1.90;;
13185;SDS011;6658;53.080;7.428;2022-08-03T07:25:17;7.60;;;1.90;;
13185;SDS011;6658;53.080;7.428;2022-08-03T07:27:44;3.77;;;1.87;;
13185;SDS011;6658;53.080;7.428;2022-08-03T07:30:11;3.37;;;1.37;;
13185;SDS011;6658;53.080;7.428;2022-08-03T07:32:37;3.23;;;1.93;;
13185;SDS011;6658;53.080;7.428;2022-08-03T07:35:04;8.23;;;2.00;;
13185;SDS011;6658;53.080;7.428;2022-08-03T07:37:30;5.83;;;1.90;;
13185;SDS011;6658;53.080;7.428;2022-08-03T07:39:57;3.83;;;2.00;;
13185;SDS011;6658;53.080;7.428;2022-08-03T07:42:23;3.93;;;1.80;;
13185;SDS011;6658;53.080;7.428;2022-08-03T07:44:50;5.17;;;1.80;;
13185;SDS011;6658;53.080;7.428;2022-08-03T07:47:23;4.93;;;1.97;;
13185;SDS011;6658;53.080;7.428;2022-08-03T07:49:50;6.03;;;1.80;;
13185;SDS011;6658;53.080;7.428;2022-08-03T07:52:16;5.53;;;1.73;;
13185;SDS011;6658;53.080;7.428;2022-08-03T07:55:01;4.60;;;1.73;;
13185;SDS011;6658;53.080;7.428;2022-08-03T07:57:28;5.20;;;1.60;;
13185;SDS011;6658;53.080;7.428;2022-08-03T07:59:54;5.50;;;1.60;;
13185;SDS011;6658;53.080;7.428;2022-08-03T08:02:20;5.87;;;1.60;;
13185;SDS011;6658;53.080;7.428;2022-08-03T08:04:45;4.10;;;1.70;;
13185;SDS011;6658;53.080;7.428;2022-08-03T08:07:11;8.03;;;2.00;;
13185;SDS011;6658;53.080;7.428;2022-08-03T08:09:37;7.40;;;2.00;;
13185;SDS011;6658;53.080;7.428;2022-08-03T08:12:03;3.07;;;1.83;;
13185;SDS011;6658;53.080;7.428;2022-08-03T08:14:29;4.60;;;1.93;;
13185;SDS011;6658;53.080;7.428;2022-08-03T08:16:55;4.53;;;1.60;;
13185;SDS011;6658;53.080;7.428;2022-08-03T08:19:21;6.35;;;1.98;;
13185;SDS011;6658;53.080;7.428;2022-08-03T08:21:46;5.30;;;1.50;;
13185;SDS011;6658;53.080;7.428;2022-08-03T08:24:12;6.32;;;1.98;;
13185;SDS011;6658;53.080;7.428;2022-08-03T08:26:47;7.85;;;1.88;;
13185;SDS011;6658;53.080;7.428;2022-08-03T08:29:13;6.25;;;1.98;;
13185;SDS011;6658;53.080;7.428;2022-08-03T08:31:38;6.15;;;2.22;;
13185;SDS011;6658;53.080;7.428;2022-08-03T08:34:04;6.68;;;1.70;;
13185;SDS011;6658;53.080;7.428;2022-08-03T08:36:32;4.35;;;1.67;;
13185;SDS011;6658;53.080;7.428;2022-08-03T08:38:58;5.18;;;1.50;;
13185;SDS011;6658;53.080;7.428;2022-08-03T08:41:23;3.70;;;1.33;;
13185;SDS011;6658;53.080;7.428;2022-08-03T08:43:49;3.08;;;1.50;;
13185;SDS011;6658;53.080;7.428;2022-08-03T08:46:15;5.75;;;1.40;;
13185;SDS011;6658;53.080;7.428;2022-08-03T08:48:42;7.72;;;2.05;;
13185;SDS011;6658;53.080;7.428;2022-08-03T08:51:10;5.45;;;1.63;;
13185;SDS011;6658;53.080;7.428;2022-08-03T08:53:38;4.38;;;1.92;;
13185;SDS011;6658;53.080;7.428;2022-08-03T08:56:08;7.20;;;2.10;;
13185;SDS011;6658;53.080;7.428;2022-08-03T08:58:40;6.75;;;1.88;;
13185;SDS011;6658;53.080;7.428;2022-08-03T09:01:11;4.30;;;1.85;;
13185;SDS011;6658;53.080;7.428;2022-08-03T09:03:37;7.57;;;2.00;;
13185;SDS011;6658;53.080;7.428;2022-08-03T09:06:04;5.82;;;1.90;;
13185;SDS011;6658;53.080;7.428;2022-08-03T09:08:31;8.27;;;2.20;;
13185;SDS011;6658;53.080;7.428;2022-08-03T09:10:57;8.48;;;2.22;;
13185;SDS011;6658;53.080;7.428;2022-08-03T09:13:23;7.43;;;2.22;;
13185;SDS011;6658;53.080;7.428;2022-08-03T09:16:07;9.38;;;2.30;;
13185;SDS011;6658;53.080;7.428;2022-08-03T09:18:36;6.72;;;2.15;;
13185;SDS011;6658;53.080;7.428;2022-08-03T09:23:43;6.03;;;1.83;;
13185;SDS011;6658;53.080;7.428;2022-08-03T09:26:11;7.97;;;2.53;;
13185;SDS011;6658;53.080;7.428;2022-08-03T09:28:37;7.07;;;2.00;;
13185;SDS011;6658;53.080;7.428;2022-08-03T09:31:03;15.05;;;2.25;;
13185;SDS011;6658;53.080;7.428;2022-08-03T09:33:31;10.43;;;2.30;;
13185;SDS011;6658;53.080;7.428;2022-08-03T09:35:56;12.50;;;2.20;;
13185;SDS011;6658;53.080;7.428;2022-08-03T09:38:23;4.30;;;1.88;;
13185;SDS011;6658;53.080;7.428;2022-08-03T09:40:56;6.28;;;2.10;;
13185;SDS011;6658;53.080;7.428;2022-08-03T09:43:28;10.05;;;2.47;;
13185;SDS011;6658;53.080;7.428;2022-08-03T09:46:10;8.40;;;2.13;;
13185;SDS011;6658;53.080;7.428;2022-08-03T09:48:37;8.82;;;2.38;;
13185;SDS011;6658;53.080;7.428;2022-08-03T09:51:03;8.27;;;2.22;;
13185;SDS011;6658;53.080;7.428;2022-08-03T09:53:29;12.75;;;2.75;;
13185;SDS011;6658;53.080;7.428;2022-08-03T09:55:56;9.93;;;2.30;;
13185;SDS011;6658;53.080;7.428;2022-08-03T09:58:23;5.28;;;2.17;;
13185;SDS011;6658;53.080;7.428;2022-08-03T10:00:57;14.98;;;2.70;;
13185;SDS011;6658;53.080;7.428;2022-08-03T10:03:33;6.82;;;2.38;;
13185;SDS011;6658;53.080;7.428;2022-08-03T10:06:18;8.20;;;2.55;;
13185;SDS011;6658;53.080;7.428;2022-08-03T10:08:46;10.35;;;2.45;;
13185;SDS011;6658;53.080;7.428;2022-08-03T10:11:28;8.68;;;2.28;;
13185;SDS011;6658;53.080;7.428;2022-08-03T10:13:55;8.25;;;2.58;;
13185;SDS011;6658;53.080;7.428;2022-08-03T10:16:21;7.05;;;2.17;;
13185;SDS011;6658;53.080;7.428;2022-08-03T10:18:47;9.55;;;2.15;;
13185;SDS011;6658;53.080;7.428;2022-08-03T10:21:14;8.82;;;2.25;;
13185;SDS011;6658;53.080;7.428;2022-08-03T10:23:43;9.80;;;2.42;;
13185;SDS011;6658;53.080;7.428;2022-08-03T10:26:11;10.60;;;2.55;;
13185;SDS011;6658;53.080;7.428;2022-08-03T10:28:41;10.90;;;2.55;;
13185;SDS011;6658;53.080;7.428;2022-08-03T10:31:13;14.63;;;2.60;;
13185;SDS011;6658;53.080;7.428;2022-08-03T10:33:42;8.27;;;2.25;;
13185;SDS011;6658;53.080;7.428;2022-08-03T10:36:11;10.00;;;2.58;;
13185;SDS011;6658;53.080;7.428;2022-08-03T10:38:46;10.48;;;3.10;;
13185;SDS011;6658;53.080;7.428;2022-08-03T10:41:21;5.80;;;2.42;;
13185;SDS011;6658;53.080;7.428;2022-08-03T10:43:49;11.98;;;2.55;;
13185;SDS011;6658;53.080;7.428;2022-08-03T10:46:20;10.75;;;2.35;;
13185;SDS011;6658;53.080;7.428;2022-08-03T10:48:47;12.07;;;2.50;;
13185;SDS011;6658;53.080;7.428;2022-08-03T10:51:15;8.18;;;2.40;;
13185;SDS011;6658;53.080;7.428;2022-08-03T10:53:41;7.82;;;2.50;;
13185;SDS011;6658;53.080;7.428;2022-08-03T10:59:17;8.98;;;2.58;;
13185;SDS011;6658;53.080;7.428;2022-08-03T11:02:03;7.95;;;2.20;;
13185;SDS011;6658;53.080;7.428;2022-08-03T11:04:32;7.80;;;2.35;;
13185;SDS011;6658;53.080;7.428;2022-08-03T11:09:51;9.68;;;2.95;;
13185;SDS011;6658;53.080;7.428;2022-08-03T11:12:28;9.48;;;2.95;;
13185;SDS011;6658;53.080;7.428;2022-08-03T11:14:56;7.40;;;2.53;;
13185;SDS011;6658;53.080;7.428;2022-08-03T11:17:23;7.50;;;2.08;;
13185;SDS011;6658;53.080;7.428;2022-08-03T11:19:50;15.40;;;2.88;;
13185;SDS011;6658;53.080;7.428;2022-08-03T11:22:17;10.77;;;2.60;;
13185;SDS011;6658;53.080;7.428;2022-08-03T11:27:24;8.43;;;2.40;;
13185;SDS011;6658;53.080;7.428;2022-08-03T11:29:56;9.30;;;2.72;;
13185;SDS011;6658;53.080;7.428;2022-08-03T11:35:28;7.85;;;2.42;;
13185;SDS011;6658;53.080;7.428;2022-08-03T11:38:08;10.88;;;2.50;;
13185;SDS011;6658;53.080;7.428;2022-08-03T11:40:43;9.23;;;2.78;;
13185;SDS011;6658;53.080;7.428;2022-08-03T11:48:33;13.15;;;2.38;;
13185;SDS011;6658;53.080;7.428;2022-08-03T11:51:25;8.10;;;2.00;;
13185;SDS011;6658;53.080;7.428;2022-08-03T11:53:58;10.35;;;2.25;;
13185;SDS011;6658;53.080;7.428;2022-08-03T11:56:26;7.72;;;2.72;;
13185;SDS011;6658;53.080;7.428;2022-08-03T11:58:54;9.23;;;2.50;;
13185;SDS011;6658;53.080;7.428;2022-08-03T12:01:21;15.25;;;3.22;;
13185;SDS011;6658;53.080;7.428;2022-08-03T12:03:48;9.43;;;2.65;;
13185;SDS011;6658;53.080;7.428;2022-08-03T12:06:15;6.95;;;2.47;;
13185;SDS011;6658;53.080;7.428;2022-08-03T12:08:42;10.40;;;2.90;;
13185;SDS011;6658;53.080;7.428;2022-08-03T12:11:09;6.80;;;2.40;;
13185;SDS011;6658;53.080;7.428;2022-08-03T12:13:45;5.82;;;2.05;;
13185;SDS011;6658;53.080;7.428;2022-08-03T12:18:45;9.02;;;2.30;;
13185;SDS011;6658;53.080;7.428;2022-08-03T12:21:19;8.30;;;2.47;;
13185;SDS011;6658;53.080;7.428;2022-08-03T12:23:48;10.23;;;2.17;;
13185;SDS011;6658;53.080;7.428;2022-08-03T12:26:14;6.25;;;1.80;;
13185;SDS011;6658;53.080;7.428;2022-08-03T12:28:46;9.73;;;2.20;;
13185;SDS011;6658;53.080;7.428;2022-08-03T12:31:13;12.55;;;2.53;;
13185;SDS011;6658;53.080;7.428;2022-08-03T12:36:19;8.27;;;2.03;;
13185;SDS011;6658;53.080;7.428;2022-08-03T12:38:52;7.03;;;2.25;;
13185;SDS011;6658;53.080;7.428;2022-08-03T12:41:42;8.55;;;2.00;;
13185;SDS011;6658;53.080;7.428;2022-08-03T12:44:07;9.80;;;2.10;;
13185;SDS011;6658;53.080;7.428;2022-08-03T12:46:37;11.25;;;2.55;;
13185;SDS011;6658;53.080;7.428;2022-08-03T12:49:05;11.48;;;2.60;;
13185;SDS011;6658;53.080;7.428;2022-08-03T12:51:34;5.38;;;2.25;;
13185;SDS011;6658;53.080;7.428;2022-08-03T12:54:30;8.40;;;2.00;;
13185;SDS011;6658;53.080;7.428;2022-08-03T12:57:02;9.60;;;2.00;;
13185;SDS011;6658;53.080;7.428;2022-08-03T12:59:30;7.32;;;2.03;;
13185;SDS011;6658;53.080;7.428;2022-08-03T13:02:00;4.53;;;1.95;;
13185;SDS011;6658;53.080;7.428;2022-08-03T13:04:34;10.73;;;2.20;;
13185;SDS011;6658;53.080;7.428;2022-08-03T13:07:05;7.25;;;2.20;;
13185;SDS011;6658;53.080;7.428;2022-08-03T13:09:42;7.55;;;1.67;;
13185;SDS011;6658;53.080;7.428;2022-08-03T13:12:25;10.25;;;2.58;;
13185;SDS011;6658;53.080;7.428;2022-08-03T13:14:56;6.00;;;1.90;;
13185;SDS011;6658;53.080;7.428;2022-08-03T13:17:23;7.05;;;1.83;;
13185;SDS011;6658;53.080;7.428;2022-08-03T13:19:49;10.07;;;1.98;;
13185;SDS011;6658;53.080;7.428;2022-08-03T13:24:47;7.05;;;2.13;;
13185;SDS011;6658;53.080;7.428;2022-08-03T13:27:15;10.80;;;1.75;;
13185;SDS011;6658;53.080;7.428;2022-08-03T13:29:41;7.97;;;1.90;;
13185;SDS011;6658;53.080;7.428;2022-08-03T13:32:07;8.02;;;2.10;;
13185;SDS011;6658;53.080;7.428;2022-08-03T13:34:34;6.60;;;2.08;;
13185;SDS011;6658;53.080;7.428;2022-08-03T13:37:02;8.63;;;2.10;;
13185;SDS011;6658;53.080;7.428;2022-08-03T13:39:37;11.60;;;2.08;;
13185;SDS011;6658;53.080;7.428;2022-08-03T13:42:03;6.30;;;1.98;;
13185;SDS011;6658;53.080;7.428;2022-08-03T13:44:33;8.88;;;2.00;;
13185;SDS011;6658;53.080;7.428;2022-08-03T13:47:01;10.63;;;1.90;;
13185;SDS011;6658;53.080;7.428;2022-08-03T13:49:27;6.57;;;1.30;;
13185;SDS011;6658;53.080;7.428;2022-08-03T13:51:54;6.38;;;1.65;;
13185;SDS011;6658;53.080;7.428;2022-08-03T13:54:20;5.80;;;1.35;;
13185;SDS011;6658;53.080;7.428;2022-08-03T13:56:46;6.43;;;1.77;;
13185;SDS011;6658;53.080;7.428;2022-08-03T13:59:17;10.52;;;1.92;;
13185;SDS011;6658;53.080;7.428;2022-08-03T14:01:47;8.98;;;1.70;;
13185;SDS011;6658;53.080;7.428;2022-08-03T14:04:13;6.22;;;1.60;;
13185;SDS011;6658;53.080;7.428;2022-08-03T14:06:39;4.60;;;1.92;;
13185;SDS011;6658;53.080;7.428;2022-08-03T14:09:10;6.50;;;1.98;;
13185;SDS011;6658;53.080;7.428;2022-08-03T14:11:37;10.25;;;2.20;;
13185;SDS011;6658;53.080;7.428;2022-08-03T14:14:07;6.25;;;1.75;;
13185;SDS011;6658;53.080;7.428;2022-08-03T14:16:34;6.70;;;1.75;;
13185;SDS011;6658;53.080;7.428;2022-08-03T14:19:00;5.85;;;1.77;;
13185;SDS011;6658;53.080;7.428;2022-08-03T14:21:25;5.95;;;1.90;;
13185;SDS011;6658;53.080;7.428;2022-08-03T14:23:51;8.20;;;1.40;;
13185;SDS011;6658;53.080;7.428;2022-08-03T14:26:18;8.80;;;2.00;;
13185;SDS011;6658;53.080;7.428;2022-08-03T14:28:44;6.85;;;1.65;;
13185;SDS011;6658;53.080;7.428;2022-08-03T14:31:10;5.80;;;1.73;;
13185;SDS011;6658;53.080;7.428;2022-08-03T14:33:36;8.18;;;1.92;;
13185;SDS011;6658;53.080;7.428;2022-08-03T14:36:02;9.18;;;4.38;;
13185;SDS011;6658;53.080;7.428;2022-08-03T14:38:28;6.25;;;1.90;;
13185;SDS011;6658;53.080;7.428;2022-08-03T14:40:54;9.70;;;2.00;;
13185;SDS011;6658;53.080;7.428;2022-08-03T14:43:21;9.60;;;2.15;;
13185;SDS011;6658;53.080;7.428;2022-08-03T14:45:51;4.82;;;1.60;;
13185;SDS011;6658;53.080;7.428;2022-08-03T14:48:21;6.57;;;2.10;;
13185;SDS011;6658;53.080;7.428;2022-08-03T14:50:49;8.38;;;2.30;;
13185;SDS011;6658;53.080;7.428;2022-08-03T14:53:16;6.18;;;2.28;;
13185;SDS011;6658;53.080;7.428;2022-08-03T14:55:42;9.10;;;2.22;;
13185;SDS011;6658;53.080;7.428;2022-08-03T14:58:08;6.60;;;2.00;;
13185;SDS011;6658;53.080;7.428;2022-08-03T15:00:34;7.63;;;1.95;;
13185;SDS011;6658;53.080;7.428;2022-08-03T15:03:00;8.98;;;2.03;;
13185;SDS011;6658;53.080;7.428;2022-08-03T15:05:27;12.02;;;2.42;;
13185;SDS011;6658;53.080;7.428;2022-08-03T15:07:52;5.25;;;1.60;;
13185;SDS011;6658;53.080;7.428;2022-08-03T15:10:19;9.07;;;2.33;;
13185;SDS011;6658;53.080;7.428;2022-08-03T15:12:45;4.82;;;2.10;;
13185;SDS011;6658;53.080;7.428;2022-08-03T15:15:11;12.10;;;2.55;;
13185;SDS011;6658;53.080;7.428;2022-08-03T15:17:37;6.88;;;1.80;;
13185;SDS011;6658;53.080;7.428;2022-08-03T15:20:03;4.75;;;1.73;;
13185;SDS011;6658;53.080;7.428;2022-08-03T15:22:30;10.68;;;2.10;;
13185;SDS011;6658;53.080;7.428;2022-08-03T15:24:56;11.73;;;2.63;;
13185;SDS011;6658;53.080;7.428;2022-08-03T15:27:22;8.60;;;2.17;;
13185;SDS011;6658;53.080;7.428;2022-08-03T15:29:48;10.93;;;2.65;;
13185;SDS011;6658;53.080;7.428;2022-08-03T15:32:14;9.80;;;2.65;;
13185;SDS011;6658;53.080;7.428;2022-08-03T15:34:39;6.97;;;2.20;;
13185;SDS011;6658;53.080;7.428;2022-08-03T15:37:05;8.50;;;2.08;;
13185;SDS011;6658;53.080;7.428;2022-08-03T15:39:31;7.20;;;2.30;;
13185;SDS011;6658;53.080;7.428;2022-08-03T15:41:56;7.95;;;2.72;;
13185;SDS011;6658;53.080;7.428;2022-08-03T15:44:22;11.32;;;2.20;;
13185;SDS011;6658;53.080;7.428;2022-08-03T15:46:48;7.95;;;1.88;;
13185;SDS011;6658;53.080;7.428;2022-08-03T15:49:16;6.40;;;1.67;;
13185;SDS011;6658;53.080;7.428;2022-08-03T15:51:44;7.32;;;2.35;;
13185;SDS011;6658;53.080;7.428;2022-08-03T15:54:10;5.40;;;1.80;;